createdAt,value
2024-03-24T00:00:00.611Z,25.8780
2024-03-24T00:00:11.660Z,25.8710
2024-03-24T00:00:22.726Z,25.8710
2024-03-24T00:00:33.756Z,25.8710
2024-03-24T00:00:44.809Z,25.8490
2024-03-24T00:00:55.858Z,25.8490
2024-03-24T00:01:06.943Z,25.8550
2024-03-24T00:01:17.971Z,25.8760
2024-03-24T00:01:29.068Z,25.8650
2024-03-24T00:01:40.081Z,25.8600
2024-03-24T00:01:51.126Z,25.8490
2024-03-24T00:02:02.167Z,25.8440
2024-03-24T00:02:13.193Z,25.8490
2024-03-24T00:02:24.239Z,25.8340
2024-03-24T00:02:35.274Z,25.8340
2024-03-24T00:02:46.317Z,25.8390
2024-03-24T00:02:57.349Z,25.8280
2024-03-24T00:03:08.373Z,25.8390
2024-03-24T00:03:19.436Z,25.8230
2024-03-24T00:03:30.479Z,25.8390
2024-03-24T00:03:41.534Z,25.8280
2024-03-24T00:03:52.589Z,25.8390
2024-03-24T00:04:03.673Z,25.8340
2024-03-24T00:04:14.699Z,25.8230
2024-03-24T00:04:25.744Z,25.8060
2024-03-24T00:04:39.009Z,25.7910
2024-03-24T00:04:50.708Z,25.8760
2024-03-24T00:05:01.771Z,25.8340
2024-03-24T00:05:12.789Z,25.8180
2024-03-24T00:05:23.846Z,25.7960
2024-03-24T00:05:34.884Z,25.8010
2024-03-24T00:05:45.931Z,25.7960
2024-03-24T00:05:56.996Z,25.8010
2024-03-24T00:06:08.010Z,25.7960
2024-03-24T00:06:19.081Z,25.7960
2024-03-24T00:06:30.113Z,25.7850
2024-03-24T00:06:41.154Z,25.7930
2024-03-24T00:06:52.208Z,25.7650
2024-03-24T00:07:03.281Z,25.7650
2024-03-24T00:07:14.289Z,25.7550
2024-03-24T00:07:25.341Z,25.7480
2024-03-24T00:07:36.389Z,25.7480
2024-03-24T00:07:47.431Z,25.7530
2024-03-24T00:07:58.474Z,25.7590
2024-03-24T00:08:09.515Z,25.7690
2024-03-24T00:08:20.554Z,25.7590
2024-03-24T00:08:31.603Z,25.7590
2024-03-24T00:08:42.681Z,25.7640
2024-03-24T00:08:53.732Z,25.7530
2024-03-24T00:09:04.785Z,25.7480
2024-03-24T00:09:15.831Z,25.7430
2024-03-24T00:09:26.892Z,25.7370
2024-03-24T00:09:37.950Z,25.7310
2024-03-24T00:09:48.995Z,25.7370
2024-03-24T00:10:00.050Z,25.7310
2024-03-24T00:10:11.095Z,25.7370
2024-03-24T00:10:22.130Z,25.7310
2024-03-24T00:10:33.178Z,25.7430
2024-03-24T00:10:44.250Z,25.7370
2024-03-24T00:10:55.284Z,25.7370
2024-03-24T00:11:06.341Z,25.7310
2024-03-24T00:11:17.364Z,25.7260
2024-03-24T00:11:28.380Z,25.7370
2024-03-24T00:11:39.434Z,25.7260
2024-03-24T00:11:50.444Z,25.7310
2024-03-24T00:12:01.509Z,25.7310
2024-03-24T00:12:12.560Z,25.7160
2024-03-24T00:12:23.580Z,25.7000
2024-03-24T00:12:34.650Z,25.7050
2024-03-24T00:12:45.719Z,25.7100
2024-03-24T00:12:56.774Z,25.7100
2024-03-24T00:13:07.847Z,25.7160
2024-03-24T00:13:18.905Z,25.7260
2024-03-24T00:13:29.934Z,25.7260
2024-03-24T00:13:40.990Z,25.7160
2024-03-24T00:13:52.083Z,25.7050
2024-03-24T00:14:03.141Z,25.6950
2024-03-24T00:14:14.176Z,25.7050
2024-03-24T00:14:25.231Z,25.6950
2024-03-24T00:14:36.273Z,25.6890
2024-03-24T00:14:47.319Z,25.7050
2024-03-24T00:14:58.369Z,25.7100
2024-03-24T00:15:09.415Z,25.7050
2024-03-24T00:15:20.464Z,25.6890
2024-03-24T00:15:31.495Z,25.6950
2024-03-24T00:15:42.565Z,25.7050
2024-03-24T00:15:53.591Z,25.7000
2024-03-24T00:16:04.669Z,25.6730
2024-03-24T00:16:15.694Z,25.6840
2024-03-24T00:16:26.749Z,25.6730
2024-03-24T00:16:37.770Z,25.6730
2024-03-24T00:16:48.814Z,25.6840
2024-03-24T00:16:59.841Z,25.7050
2024-03-24T00:17:10.884Z,25.6950
2024-03-24T00:17:21.976Z,25.6840
2024-03-24T00:17:33.013Z,25.6790
2024-03-24T00:17:44.075Z,25.6730
2024-03-24T00:17:55.127Z,25.6730
2024-03-24T00:18:06.169Z,25.6680
2024-03-24T00:18:17.186Z,25.6840
2024-03-24T00:18:28.256Z,25.6630
2024-03-24T00:18:39.321Z,25.6730
2024-03-24T00:18:50.358Z,25.6730
2024-03-24T00:19:01.422Z,25.6560
2024-03-24T00:19:12.486Z,25.6630
2024-03-24T00:19:23.523Z,25.6510
2024-03-24T00:19:34.597Z,25.6510
2024-03-24T00:19:45.649Z,25.6510
2024-03-24T00:19:56.709Z,25.6560
2024-03-24T00:20:07.733Z,25.6630
2024-03-24T00:20:18.801Z,25.6410
2024-03-24T00:20:29.836Z,25.6460
2024-03-24T00:20:40.871Z,25.6410
2024-03-24T00:20:51.928Z,25.6460
2024-03-24T00:21:02.948Z,25.6510
2024-03-24T00:21:14.001Z,25.6460
2024-03-24T00:21:25.052Z,25.6630
2024-03-24T00:21:36.112Z,25.6410
2024-03-24T00:21:47.138Z,25.6410
2024-03-24T00:21:58.186Z,25.6460
2024-03-24T00:22:09.256Z,25.6460
2024-03-24T00:22:20.284Z,25.6350
2024-03-24T00:22:31.527Z,25.6460
2024-03-24T00:22:42.572Z,25.6300
2024-03-24T00:22:53.639Z,25.6250
2024-03-24T00:23:04.694Z,25.6250
2024-03-24T00:23:15.753Z,25.6140
2024-03-24T00:23:26.823Z,25.6250
2024-03-24T00:23:37.885Z,25.6200
2024-03-24T00:23:48.933Z,25.6300
2024-03-24T00:23:59.948Z,25.6300
2024-03-24T00:24:11.025Z,25.6460
2024-03-24T00:24:22.049Z,25.6410
2024-03-24T00:24:33.093Z,25.6350
2024-03-24T00:24:44.131Z,25.6350
2024-03-24T00:24:55.166Z,25.6200
2024-03-24T00:25:06.226Z,25.6140
2024-03-24T00:25:17.275Z,25.6200
2024-03-24T00:25:28.315Z,25.6200
2024-03-24T00:25:39.371Z,25.6200
2024-03-24T00:25:50.427Z,25.6200
2024-03-24T00:26:01.478Z,25.6250
2024-03-24T00:26:12.505Z,25.6300
2024-03-24T00:26:23.524Z,25.5990
2024-03-24T00:26:34.573Z,25.6090
2024-03-24T00:26:45.613Z,25.6200
2024-03-24T00:26:56.679Z,25.6250
2024-03-24T00:27:07.740Z,25.6200
2024-03-24T00:27:18.816Z,25.6250
2024-03-24T00:27:29.835Z,25.6250
2024-03-24T00:27:40.892Z,25.6140
2024-03-24T00:27:51.951Z,25.6090
2024-03-24T00:28:03.018Z,25.6090
2024-03-24T00:28:14.067Z,25.6040
2024-03-24T00:28:25.096Z,25.6040
2024-03-24T00:28:36.124Z,25.6040
2024-03-24T00:28:47.173Z,25.6090
2024-03-24T00:28:58.225Z,25.5990
2024-03-24T00:29:09.303Z,25.5930
2024-03-24T00:29:20.338Z,25.5990
2024-03-24T00:29:31.353Z,25.5820
2024-03-24T00:29:42.418Z,25.5710
2024-03-24T00:29:53.444Z,25.5820
2024-03-24T00:30:04.474Z,25.5610
2024-03-24T00:30:15.524Z,25.5610
2024-03-24T00:30:26.559Z,25.5610
2024-03-24T00:30:37.614Z,25.5710
2024-03-24T00:30:48.653Z,25.5660
2024-03-24T00:30:59.700Z,25.5710
2024-03-24T00:31:10.755Z,25.5710
2024-03-24T00:31:21.816Z,25.5710
2024-03-24T00:31:32.851Z,25.5760
2024-03-24T00:31:43.892Z,25.5930
2024-03-24T00:31:54.961Z,25.5820
2024-03-24T00:32:06.025Z,25.5710
2024-03-24T00:32:17.082Z,25.5760
2024-03-24T00:32:28.133Z,25.5710
2024-03-24T00:32:39.150Z,25.5610
2024-03-24T00:32:50.166Z,25.5660
2024-03-24T00:33:01.227Z,25.5820
2024-03-24T00:33:12.271Z,25.5760
2024-03-24T00:33:23.313Z,25.5660
2024-03-24T00:33:34.368Z,25.5710
2024-03-24T00:33:45.417Z,25.5550
2024-03-24T00:33:56.465Z,25.5450
2024-03-24T00:34:07.537Z,25.5710
2024-03-24T00:34:18.603Z,25.5550
2024-03-24T00:34:29.670Z,25.5760
2024-03-24T00:34:40.698Z,25.5610
2024-03-24T00:34:51.703Z,25.5550
2024-03-24T00:35:02.765Z,25.5550
2024-03-24T00:35:13.802Z,25.5500
2024-03-24T00:35:24.860Z,25.5400
2024-03-24T00:35:35.911Z,25.5240
2024-03-24T00:35:47.009Z,25.5340
2024-03-24T00:35:58.029Z,25.5400
2024-03-24T00:36:09.086Z,25.5400
2024-03-24T00:36:20.132Z,25.5240
2024-03-24T00:36:31.182Z,25.5190
2024-03-24T00:36:42.214Z,25.5290
2024-03-24T00:36:53.269Z,25.5240
2024-03-24T00:37:04.295Z,25.5190
2024-03-24T00:37:15.335Z,25.5070
2024-03-24T00:37:26.392Z,25.5240
2024-03-24T00:37:37.404Z,25.5070
2024-03-24T00:37:48.446Z,25.5190
2024-03-24T00:37:59.525Z,25.5240
2024-03-24T00:38:10.564Z,25.5290
2024-03-24T00:38:21.600Z,25.5130
2024-03-24T00:38:32.633Z,25.5240
2024-03-24T00:38:43.684Z,25.5290
2024-03-24T00:38:54.742Z,25.5240
2024-03-24T00:39:05.794Z,25.5190
2024-03-24T00:39:16.852Z,25.5240
2024-03-24T00:39:27.965Z,25.5450
2024-03-24T00:39:40.464Z,25.5550
2024-03-24T00:39:52.873Z,25.6200
2024-03-24T00:40:03.886Z,25.5840
2024-03-24T00:40:14.953Z,25.5630
2024-03-24T00:40:25.982Z,25.5420
2024-03-24T00:40:37.002Z,25.5250
2024-03-24T00:40:48.042Z,25.5310
2024-03-24T00:40:59.102Z,25.5250
2024-03-24T00:41:10.149Z,25.5310
2024-03-24T00:41:21.215Z,25.5370
2024-03-24T00:41:32.265Z,25.5450
2024-03-24T00:41:43.274Z,25.5500
2024-03-24T00:41:54.313Z,25.5290
2024-03-24T00:42:05.359Z,25.5400
2024-03-24T00:42:16.411Z,25.5240
2024-03-24T00:42:27.446Z,25.5190
2024-03-24T00:42:38.497Z,25.5190
2024-03-24T00:42:49.557Z,25.5240
2024-03-24T00:43:00.581Z,25.5020
2024-03-24T00:43:11.614Z,25.5130
2024-03-24T00:43:22.654Z,25.5020
2024-03-24T00:43:33.713Z,25.5240
2024-03-24T00:43:44.762Z,25.5290
2024-03-24T00:43:55.829Z,25.5130
2024-03-24T00:44:06.857Z,25.4960
2024-03-24T00:44:17.870Z,25.4910
2024-03-24T00:44:28.922Z,25.4960
2024-03-24T00:44:40.016Z,25.4860
2024-03-24T00:44:51.071Z,25.4910
2024-03-24T00:45:02.121Z,25.4860
2024-03-24T00:45:13.165Z,25.4910
2024-03-24T00:45:24.189Z,25.4860
2024-03-24T00:45:35.244Z,25.4960
2024-03-24T00:45:46.295Z,25.4910
2024-03-24T00:45:57.353Z,25.4910
2024-03-24T00:46:08.407Z,25.5020
2024-03-24T00:46:19.443Z,25.4810
2024-03-24T00:46:30.459Z,25.4910
2024-03-24T00:46:41.493Z,25.4910
2024-03-24T00:46:52.561Z,25.4860
2024-03-24T00:47:03.632Z,25.4860
2024-03-24T00:47:14.671Z,25.4650
2024-03-24T00:47:25.700Z,25.4650
2024-03-24T00:47:36.714Z,25.4650
2024-03-24T00:47:47.744Z,25.4810
2024-03-24T00:47:58.771Z,25.4820
2024-03-24T00:48:09.820Z,25.4770
2024-03-24T00:48:20.872Z,25.4710
2024-03-24T00:48:31.923Z,25.4710
2024-03-24T00:48:42.973Z,25.4660
2024-03-24T00:48:54.003Z,25.4610
2024-03-24T00:49:05.066Z,25.4660
2024-03-24T00:49:16.067Z,25.4560
2024-03-24T00:49:27.084Z,25.4610
2024-03-24T00:49:38.173Z,25.4610
2024-03-24T00:49:49.238Z,25.4700
2024-03-24T00:50:00.267Z,25.4700
2024-03-24T00:50:11.310Z,25.4600
2024-03-24T00:50:22.358Z,25.4700
2024-03-24T00:50:33.400Z,25.4540
2024-03-24T00:50:44.468Z,25.4650
2024-03-24T00:50:55.483Z,25.4490
2024-03-24T00:51:06.551Z,25.4380
2024-03-24T00:51:17.598Z,25.4440
2024-03-24T00:51:28.652Z,25.4330
2024-03-24T00:51:39.723Z,25.4380
2024-03-24T00:51:50.763Z,25.4440
2024-03-24T00:52:01.835Z,25.4540
2024-03-24T00:52:12.885Z,25.4440
2024-03-24T00:52:23.925Z,25.4540
2024-03-24T00:52:35.004Z,25.4540
2024-03-24T00:52:46.030Z,25.4540
2024-03-24T00:52:57.077Z,25.4540
2024-03-24T00:53:08.140Z,25.4540
2024-03-24T00:53:19.155Z,25.4380
2024-03-24T00:53:30.202Z,25.4540
2024-03-24T00:53:41.266Z,25.4600
2024-03-24T00:53:52.303Z,25.4750
2024-03-24T00:54:03.319Z,25.4750
2024-03-24T00:54:14.371Z,25.4650
2024-03-24T00:54:25.425Z,25.4490
2024-03-24T00:54:36.469Z,25.4600
2024-03-24T00:54:47.543Z,25.4540
2024-03-24T00:54:58.583Z,25.4540
2024-03-24T00:55:09.683Z,25.4540
2024-03-24T00:55:20.754Z,25.4490
2024-03-24T00:55:31.804Z,25.4650
2024-03-24T00:55:42.817Z,25.4540
2024-03-24T00:55:53.894Z,25.4700
2024-03-24T00:56:04.955Z,25.4500
2024-03-24T00:56:15.994Z,25.4500
2024-03-24T00:56:26.998Z,25.4500
2024-03-24T00:56:38.035Z,25.4710
2024-03-24T00:56:49.081Z,25.4500
2024-03-24T00:57:00.105Z,25.4450
2024-03-24T00:57:11.148Z,25.4400
2024-03-24T00:57:22.204Z,25.4400
2024-03-24T00:57:33.252Z,25.4290
2024-03-24T00:57:44.303Z,25.4350
2024-03-24T00:57:55.364Z,25.4450
2024-03-24T00:58:06.453Z,25.4560
2024-03-24T00:58:17.467Z,25.4660
2024-03-24T00:58:28.508Z,25.4500
2024-03-24T00:58:39.555Z,25.4400
2024-03-24T00:58:50.611Z,25.4450
2024-03-24T00:59:01.677Z,25.4560
2024-03-24T00:59:12.734Z,25.4500
2024-03-24T00:59:23.763Z,25.4560
2024-03-24T00:59:34.810Z,25.4400
2024-03-24T00:59:45.829Z,25.4400
2024-03-24T00:59:56.922Z,25.4560
2024-03-24T01:00:07.974Z,25.4450
2024-03-24T01:00:19.008Z,25.4560
2024-03-24T01:00:30.058Z,25.4560
2024-03-24T01:00:41.071Z,25.4450
2024-03-24T01:00:52.104Z,25.4500
2024-03-24T01:01:03.133Z,25.4610
2024-03-24T01:01:14.187Z,25.4660
2024-03-24T01:01:25.257Z,25.4710
2024-03-24T01:01:36.289Z,25.4710
2024-03-24T01:01:47.340Z,25.4660
2024-03-24T01:01:58.378Z,25.4660
2024-03-24T01:02:09.425Z,25.4710
2024-03-24T01:02:20.484Z,25.4820
2024-03-24T01:02:31.502Z,25.4770
2024-03-24T01:02:42.540Z,25.4750
2024-03-24T01:02:53.560Z,25.4700
2024-03-24T01:03:04.592Z,25.4810
2024-03-24T01:03:15.645Z,25.4810
2024-03-24T01:03:26.647Z,25.4860
2024-03-24T01:03:37.698Z,25.4810
2024-03-24T01:03:48.713Z,25.4810
2024-03-24T01:03:59.767Z,25.4750
2024-03-24T01:04:10.855Z,25.4930
2024-03-24T01:04:21.897Z,25.4820
2024-03-24T01:04:32.944Z,25.4930
2024-03-24T01:04:44.002Z,25.4930
2024-03-24T01:04:55.052Z,25.5070
2024-03-24T01:05:06.133Z,25.5070
2024-03-24T01:05:17.172Z,25.5190
2024-03-24T01:05:28.230Z,25.5240
2024-03-24T01:05:39.325Z,25.5130
2024-03-24T01:05:50.394Z,25.5190
2024-03-24T01:06:01.435Z,25.5290
2024-03-24T01:06:12.474Z,25.5190
2024-03-24T01:06:23.543Z,25.5340
2024-03-24T01:06:34.584Z,25.5240
2024-03-24T01:06:45.644Z,25.5290
2024-03-24T01:06:56.671Z,25.5190
2024-03-24T01:07:07.718Z,25.5190
2024-03-24T01:07:18.763Z,25.5240
2024-03-24T01:07:29.811Z,25.5340
2024-03-24T01:07:40.868Z,25.5240
2024-03-24T01:07:51.896Z,25.5240
2024-03-24T01:08:02.971Z,25.5340
2024-03-24T01:08:13.993Z,25.5340
2024-03-24T01:08:25.064Z,25.5240
2024-03-24T01:08:36.144Z,25.5290
2024-03-24T01:08:47.194Z,25.5400
2024-03-24T01:08:58.269Z,25.5500
2024-03-24T01:09:09.294Z,25.5400
2024-03-24T01:09:20.352Z,25.5550
2024-03-24T01:09:31.396Z,25.5610
2024-03-24T01:09:42.454Z,25.5610
2024-03-24T01:09:53.509Z,25.5550
2024-03-24T01:10:04.558Z,25.5660
2024-03-24T01:10:15.634Z,25.5760
2024-03-24T01:10:26.692Z,25.5760
2024-03-24T01:10:37.739Z,25.5710
2024-03-24T01:10:48.789Z,25.5880
2024-03-24T01:10:59.829Z,25.5760
2024-03-24T01:11:10.853Z,25.5710
2024-03-24T01:11:21.882Z,25.5760
2024-03-24T01:11:32.910Z,25.5760
2024-03-24T01:11:43.953Z,25.5760
2024-03-24T01:11:54.993Z,25.5760
2024-03-24T01:12:06.035Z,25.5880
2024-03-24T01:12:17.087Z,25.5930
2024-03-24T01:12:28.142Z,25.5930
2024-03-24T01:12:39.162Z,25.5890
2024-03-24T01:12:50.213Z,25.5840
2024-03-24T01:13:01.264Z,25.5890
2024-03-24T01:13:12.339Z,25.5790
2024-03-24T01:13:23.365Z,25.5790
2024-03-24T01:13:34.413Z,25.5840
2024-03-24T01:13:45.453Z,25.5890
2024-03-24T01:13:56.499Z,25.5890
2024-03-24T01:14:07.533Z,25.5890
2024-03-24T01:14:18.574Z,25.5990
2024-03-24T01:14:29.698Z,25.5930
2024-03-24T01:14:40.723Z,25.6040
2024-03-24T01:14:51.762Z,25.6160
2024-03-24T01:15:02.771Z,25.6040
2024-03-24T01:15:13.808Z,25.6090
2024-03-24T01:15:24.888Z,25.6160
2024-03-24T01:15:35.923Z,25.6320
2024-03-24T01:15:46.998Z,25.6200
2024-03-24T01:15:58.034Z,25.6350
2024-03-24T01:16:09.126Z,25.6410
2024-03-24T01:16:20.161Z,25.6320
2024-03-24T01:16:31.205Z,25.6430
2024-03-24T01:16:42.247Z,25.6320
2024-03-24T01:16:53.324Z,25.6370
2024-03-24T01:17:04.378Z,25.6370
2024-03-24T01:17:15.433Z,25.6370
2024-03-24T01:17:26.487Z,25.6320
2024-03-24T01:17:37.520Z,25.6320
2024-03-24T01:17:48.581Z,25.6320
2024-03-24T01:17:59.650Z,25.6370
2024-03-24T01:18:10.707Z,25.6460
2024-03-24T01:18:21.762Z,25.6540
2024-03-24T01:18:32.759Z,25.6480
2024-03-24T01:18:43.800Z,25.6540
2024-03-24T01:18:54.876Z,25.6590
2024-03-24T01:19:05.905Z,25.6640
2024-03-24T01:19:16.964Z,25.6640
2024-03-24T01:19:30.046Z,25.6640
2024-03-24T01:19:42.652Z,25.7590
2024-03-24T01:19:53.710Z,25.7260
2024-03-24T01:20:04.730Z,25.7160
2024-03-24T01:20:15.750Z,25.7000
2024-03-24T01:20:26.833Z,25.6950
2024-03-24T01:20:37.883Z,25.6840
2024-03-24T01:20:48.929Z,25.6840
2024-03-24T01:20:59.950Z,25.6960
2024-03-24T01:21:11.017Z,25.6900
2024-03-24T01:21:22.047Z,25.6960
2024-03-24T01:21:33.104Z,25.7010
2024-03-24T01:21:44.205Z,25.7010
2024-03-24T01:21:55.346Z,25.7120
2024-03-24T01:22:06.397Z,25.7180
2024-03-24T01:22:17.435Z,25.7120
2024-03-24T01:22:28.463Z,25.7290
2024-03-24T01:22:39.514Z,25.7230
2024-03-24T01:22:50.560Z,25.7230
2024-03-24T01:23:01.612Z,25.7230
2024-03-24T01:23:12.651Z,25.7230
2024-03-24T01:23:23.672Z,25.7290
2024-03-24T01:23:34.719Z,25.7230
2024-03-24T01:23:45.782Z,25.7290
2024-03-24T01:23:56.835Z,25.7290
2024-03-24T01:24:07.884Z,25.7340
2024-03-24T01:24:18.926Z,25.7500
2024-03-24T01:24:29.970Z,25.7340
2024-03-24T01:24:40.976Z,25.7500
2024-03-24T01:24:52.026Z,25.7500
2024-03-24T01:25:03.049Z,25.7500
2024-03-24T01:25:14.103Z,25.7500
2024-03-24T01:25:25.147Z,25.7500
2024-03-24T01:25:36.235Z,25.7550
2024-03-24T01:25:47.273Z,25.7500
2024-03-24T01:25:58.376Z,25.7600
2024-03-24T01:26:09.410Z,25.7650
2024-03-24T01:26:22.742Z,25.7600
2024-03-24T01:26:34.168Z,25.8240
2024-03-24T01:26:45.217Z,25.7910
2024-03-24T01:26:56.243Z,25.7760
2024-03-24T01:27:07.283Z,25.7600
2024-03-24T01:27:18.309Z,25.7550
2024-03-24T01:27:29.329Z,25.7600
2024-03-24T01:27:40.389Z,25.7700
2024-03-24T01:27:51.448Z,25.7700
2024-03-24T01:28:02.478Z,25.7700
2024-03-24T01:28:13.509Z,25.7700
2024-03-24T01:28:24.558Z,25.7700
2024-03-24T01:28:35.608Z,25.7700
2024-03-24T01:28:46.624Z,25.7760
2024-03-24T01:28:57.673Z,25.7760
2024-03-24T01:29:08.735Z,25.7760
2024-03-24T01:29:19.784Z,25.7650
2024-03-24T01:29:30.835Z,25.7760
2024-03-24T01:29:41.885Z,25.7810
2024-03-24T01:29:52.954Z,25.7930
2024-03-24T01:30:03.985Z,25.7810
2024-03-24T01:30:15.038Z,25.8030
2024-03-24T01:30:26.056Z,25.7930
2024-03-24T01:30:37.083Z,25.7860
2024-03-24T01:30:48.141Z,25.7860
2024-03-24T01:30:59.224Z,25.7980
2024-03-24T01:31:10.301Z,25.8030
2024-03-24T01:31:21.321Z,25.7930
2024-03-24T01:31:32.386Z,25.7980
2024-03-24T01:31:43.435Z,25.8140
2024-03-24T01:31:54.470Z,25.8140
2024-03-24T01:32:05.517Z,25.8140
2024-03-24T01:32:16.549Z,25.8090
2024-03-24T01:32:27.560Z,25.8300
2024-03-24T01:32:38.601Z,25.8240
2024-03-24T01:32:49.628Z,25.8240
2024-03-24T01:33:00.684Z,25.8400
2024-03-24T01:33:11.739Z,25.8240
2024-03-24T01:33:22.775Z,25.8510
2024-03-24T01:33:33.830Z,25.8300
2024-03-24T01:33:44.881Z,25.8400
2024-03-24T01:33:55.895Z,25.8450
2024-03-24T01:34:06.941Z,25.8400
2024-03-24T01:34:17.993Z,25.8350
2024-03-24T01:34:29.052Z,25.8400
2024-03-24T01:34:40.103Z,25.8440
2024-03-24T01:34:51.153Z,25.8490
2024-03-24T01:35:02.180Z,25.8440
2024-03-24T01:35:13.199Z,25.8550
2024-03-24T01:35:24.255Z,25.8600
2024-03-24T01:35:35.281Z,25.8760
2024-03-24T01:35:46.356Z,25.8710
2024-03-24T01:35:57.367Z,25.8810
2024-03-24T01:36:08.423Z,25.8810
2024-03-24T01:36:19.491Z,25.8810
2024-03-24T01:36:30.523Z,25.8930
2024-03-24T01:36:41.568Z,25.8760
2024-03-24T01:36:52.622Z,25.8760
2024-03-24T01:37:03.689Z,25.8760
2024-03-24T01:37:14.729Z,25.8840
2024-03-24T01:37:25.759Z,25.8780
2024-03-24T01:37:36.803Z,25.8780
2024-03-24T01:37:47.847Z,25.8840
2024-03-24T01:37:58.897Z,25.8890
2024-03-24T01:38:09.943Z,25.8840
2024-03-24T01:38:20.976Z,25.8890
2024-03-24T01:38:32.010Z,25.8940
2024-03-24T01:38:43.061Z,25.8990
2024-03-24T01:38:54.104Z,25.8990
2024-03-24T01:39:05.159Z,25.8890
2024-03-24T01:39:16.201Z,25.8940
2024-03-24T01:39:27.270Z,25.9050
2024-03-24T01:39:38.310Z,25.9100
2024-03-24T01:39:49.350Z,25.9100
2024-03-24T01:40:00.404Z,25.9050
2024-03-24T01:40:11.470Z,25.9100
2024-03-24T01:40:22.510Z,25.8990
2024-03-24T01:40:33.550Z,25.9150
2024-03-24T01:40:44.654Z,25.9100
2024-03-24T01:40:55.726Z,25.9050
2024-03-24T01:41:06.771Z,25.9150
2024-03-24T01:41:17.815Z,25.9310
2024-03-24T01:41:28.858Z,25.9310
2024-03-24T01:41:39.891Z,25.9200
2024-03-24T01:41:50.944Z,25.9260
2024-03-24T01:42:01.984Z,25.9310
2024-03-24T01:42:13.066Z,25.9260
2024-03-24T01:42:24.090Z,25.9310
2024-03-24T01:42:35.128Z,25.9260
2024-03-24T01:42:46.166Z,25.9310
2024-03-24T01:42:57.195Z,25.9310
2024-03-24T01:43:08.236Z,25.9420
2024-03-24T01:43:19.270Z,25.9420
2024-03-24T01:43:30.318Z,25.9360
2024-03-24T01:43:41.340Z,25.9420
2024-03-24T01:43:52.383Z,25.9420
2024-03-24T01:44:03.438Z,25.9420
2024-03-24T01:44:14.505Z,25.9420
2024-03-24T01:44:25.531Z,25.9480
2024-03-24T01:44:36.570Z,25.9480
2024-03-24T01:44:47.602Z,25.9530
2024-03-24T01:44:58.630Z,25.9580
2024-03-24T01:45:09.692Z,25.9360
2024-03-24T01:45:20.735Z,25.9530
2024-03-24T01:45:31.764Z,25.9640
2024-03-24T01:45:42.790Z,25.9580
2024-03-24T01:45:53.850Z,25.9690
2024-03-24T01:46:04.917Z,25.9690
2024-03-24T01:46:15.973Z,25.9740
2024-03-24T01:46:27.012Z,25.9740
2024-03-24T01:46:38.056Z,25.9690
2024-03-24T01:46:49.110Z,25.9800
2024-03-24T01:47:00.163Z,25.9800
2024-03-24T01:47:11.183Z,25.9850
2024-03-24T01:47:22.227Z,25.9900
2024-03-24T01:47:33.286Z,25.9850
2024-03-24T01:47:44.390Z,25.9850
2024-03-24T01:47:55.430Z,26.0010
2024-03-24T01:48:06.485Z,25.9850
2024-03-24T01:48:17.520Z,26.0010
2024-03-24T01:48:28.560Z,26.0010
2024-03-24T01:48:39.600Z,25.9960
2024-03-24T01:48:50.646Z,26.0010
2024-03-24T01:49:01.693Z,26.0110
2024-03-24T01:49:12.770Z,26.0060
2024-03-24T01:49:23.784Z,26.0060
2024-03-24T01:49:34.828Z,26.0060
2024-03-24T01:49:45.847Z,26.0110
2024-03-24T01:49:56.891Z,26.0230
2024-03-24T01:50:07.945Z,26.0170
2024-03-24T01:50:18.963Z,26.0230
2024-03-24T01:50:29.991Z,26.0280
2024-03-24T01:50:41.053Z,26.0170
2024-03-24T01:50:52.080Z,26.0330
2024-03-24T01:51:03.116Z,26.0230
2024-03-24T01:51:14.184Z,26.0330
2024-03-24T01:51:25.230Z,26.0330
2024-03-24T01:51:36.250Z,26.0390
2024-03-24T01:51:47.300Z,26.0390
2024-03-24T01:51:58.343Z,26.0390
2024-03-24T01:52:09.405Z,26.0390
2024-03-24T01:52:20.407Z,26.0490
2024-03-24T01:52:31.435Z,26.0490
2024-03-24T01:52:42.471Z,26.0600
2024-03-24T01:52:53.507Z,26.0600
2024-03-24T01:53:04.562Z,26.0600
2024-03-24T01:53:15.613Z,26.0710
2024-03-24T01:53:26.639Z,26.0810
2024-03-24T01:53:37.690Z,26.0710
2024-03-24T01:53:48.718Z,26.0810
2024-03-24T01:53:59.809Z,26.0860
2024-03-24T01:54:10.794Z,26.0710
2024-03-24T01:54:21.862Z,26.0850
2024-03-24T01:54:32.911Z,26.0760
2024-03-24T01:54:43.949Z,26.1030
2024-03-24T01:54:55.001Z,26.1030
2024-03-24T01:55:06.044Z,26.1030
2024-03-24T01:55:17.103Z,26.1190
2024-03-24T01:55:28.145Z,26.1090
2024-03-24T01:55:39.205Z,26.1090
2024-03-24T01:55:50.239Z,26.1140
2024-03-24T01:56:01.273Z,26.1190
2024-03-24T01:56:12.326Z,26.1190
2024-03-24T01:56:23.441Z,26.1280
2024-03-24T01:56:34.472Z,26.1230
2024-03-24T01:56:45.540Z,26.1300
2024-03-24T01:56:56.580Z,26.1300
2024-03-24T01:57:07.624Z,26.1400
2024-03-24T01:57:18.671Z,26.1250
2024-03-24T01:57:29.831Z,26.1300
2024-03-24T01:57:41.038Z,26.1300
2024-03-24T01:57:52.103Z,26.1300
2024-03-24T01:58:03.124Z,26.1350
2024-03-24T01:58:14.207Z,26.1400
2024-03-24T01:58:25.205Z,26.1400
2024-03-24T01:58:36.267Z,26.1460
2024-03-24T01:58:47.314Z,26.1610
2024-03-24T01:58:58.381Z,26.1510
2024-03-24T01:59:09.429Z,26.1670
2024-03-24T01:59:20.434Z,26.1610
2024-03-24T01:59:31.445Z,26.1670
2024-03-24T01:59:42.486Z,26.1780
2024-03-24T01:59:53.507Z,26.1720
2024-03-24T02:00:04.564Z,26.1720
2024-03-24T02:00:15.629Z,26.1780
2024-03-24T02:00:26.669Z,26.1780
2024-03-24T02:00:37.744Z,26.1840
2024-03-24T02:00:48.746Z,26.1840
2024-03-24T02:00:59.814Z,26.1840
2024-03-24T02:01:10.856Z,26.1840
2024-03-24T02:01:21.901Z,26.1940
2024-03-24T02:01:32.974Z,26.1940
2024-03-24T02:01:44.019Z,26.2050
2024-03-24T02:01:55.049Z,26.1940
2024-03-24T02:02:06.071Z,26.2150
2024-03-24T02:02:17.120Z,26.2000
2024-03-24T02:02:28.170Z,26.2210
2024-03-24T02:02:39.226Z,26.2370
2024-03-24T02:02:50.311Z,26.2210
2024-03-24T02:03:01.351Z,26.2260
2024-03-24T02:03:12.401Z,26.2260
2024-03-24T02:03:23.434Z,26.2310
2024-03-24T02:03:34.469Z,26.2420
2024-03-24T02:03:45.527Z,26.2370
2024-03-24T02:03:56.564Z,26.2470
2024-03-24T02:04:07.615Z,26.2640
2024-03-24T02:04:18.640Z,26.2470
2024-03-24T02:04:29.770Z,26.2590
2024-03-24T02:04:40.874Z,26.2540
2024-03-24T02:04:51.921Z,26.2640
2024-03-24T02:05:02.964Z,26.2590
2024-03-24T02:05:14.014Z,26.2640
2024-03-24T02:05:25.025Z,26.2640
2024-03-24T02:05:36.098Z,26.2640
2024-03-24T02:05:47.120Z,26.2750
2024-03-24T02:05:58.174Z,26.2700
2024-03-24T02:06:09.262Z,26.2800
2024-03-24T02:06:20.285Z,26.2670
2024-03-24T02:06:31.733Z,26.2720
2024-03-24T02:06:42.837Z,26.2890
2024-03-24T02:06:53.895Z,26.2890
2024-03-24T02:07:04.920Z,26.2850
2024-03-24T02:07:15.985Z,26.2840
2024-03-24T02:07:27.069Z,26.2800
2024-03-24T02:07:38.149Z,26.2850
2024-03-24T02:07:49.161Z,26.2850
2024-03-24T02:08:00.182Z,26.2850
2024-03-24T02:08:11.245Z,26.2910
2024-03-24T02:08:22.314Z,26.2850
2024-03-24T02:08:33.375Z,26.2960
2024-03-24T02:08:44.418Z,26.3060
2024-03-24T02:08:55.463Z,26.3060
2024-03-24T02:09:06.522Z,26.2960
2024-03-24T02:09:17.577Z,26.3120
2024-03-24T02:09:28.621Z,26.3160
2024-03-24T02:09:39.706Z,26.3120
2024-03-24T02:09:50.738Z,26.3000
2024-03-24T02:10:01.776Z,26.3120
2024-03-24T02:10:12.835Z,26.3120
2024-03-24T02:10:23.896Z,26.3120
2024-03-24T02:10:34.929Z,26.3170
2024-03-24T02:10:45.979Z,26.3220
2024-03-24T02:10:57.016Z,26.3290
2024-03-24T02:11:08.043Z,26.3170
2024-03-24T02:11:19.085Z,26.3220
2024-03-24T02:11:30.132Z,26.3340
2024-03-24T02:11:41.180Z,26.3290
2024-03-24T02:11:52.242Z,26.3420
2024-03-24T02:12:03.302Z,26.3320
2024-03-24T02:12:14.400Z,26.3420
2024-03-24T02:12:25.421Z,26.3370
2024-03-24T02:12:36.464Z,26.3260
2024-03-24T02:12:47.516Z,26.3420
2024-03-24T02:12:58.567Z,26.3340
2024-03-24T02:13:09.636Z,26.3390
2024-03-24T02:13:20.705Z,26.3450
2024-03-24T02:13:31.756Z,26.3390
2024-03-24T02:13:42.820Z,26.3420